Time;durP1;ratioP1;P1;durP2;ratioP2;P2;SDS_P1;SDS_P2;PMS_P1;PMS_P2;Temp;Humidity;BMP_temperature;BMP_pressure;BME280_temperature;BME280_humidity;BME280_pressure;Samples;Min_cycle;Max_cycle;Signal;HPM_P1;HPM_P2
2022/02/08 00:02:16;;;;;;;6.40;3.05;;;0.80;99.90;;;;;;5020501;28;20220;-84
2022/02/08 00:04:43;;;;;;;9.70;2.45;;;0.80;99.90;;;;;;5013629;28;20221;-83
2022/02/08 00:07:11;;;;;;;5.30;2.22;;;0.80;99.90;;;;;;5010761;28;20197;-83
2022/02/08 00:09:38;;;;;;;3.53;2.83;;;0.80;99.90;;;;;;5012526;28;20295;-82
2022/02/08 00:12:06;;;;;;;5.35;2.83;;;0.80;99.90;;;;;;5009944;28;20198;-83
2022/02/08 00:14:33;;;;;;;4.45;2.08;;;0.80;99.90;;;;;;5014142;28;20264;-83
2022/02/08 00:17:00;;;;;;;5.55;2.60;;;0.80;99.90;;;;;;5021019;28;20516;-82
2022/02/08 00:19:28;;;;;;;2.58;2.38;;;0.80;99.90;;;;;;5024028;28;20252;-83
2022/02/08 00:21:55;;;;;;;2.28;2.03;;;0.80;99.90;;;;;;5028249;28;20196;-83
2022/02/08 00:24:22;;;;;;;4.80;2.08;;;0.80;99.90;;;;;;5026963;28;20225;-83
2022/02/08 00:26:49;;;;;;;3.00;2.00;;;0.90;99.90;;;;;;5010865;28;20221;-83
2022/02/08 00:29:16;;;;;;;2.63;2.20;;;0.90;99.90;;;;;;5009913;28;20267;-83
2022/02/08 00:31:43;;;;;;;6.18;3.03;;;1.10;99.90;;;;;;5016288;28;20196;-83
2022/02/08 00:34:10;;;;;;;11.45;3.22;;;1.10;99.90;;;;;;5028465;28;20677;-82
2022/02/08 00:36:38;;;;;;;5.90;3.03;;;1.10;99.90;;;;;;5022993;28;20215;-83
2022/02/08 00:39:07;;;;;;;7.05;2.95;;;1.20;99.90;;;;;;5009194;28;20253;-83
2022/02/08 00:41:35;;;;;;;5.75;2.78;;;1.10;99.90;;;;;;5009866;28;20201;-83
2022/02/08 00:44:09;;;;;;;11.10;2.70;;;1.10;99.90;;;;;;5012893;28;20203;-83
2022/02/08 00:46:41;;;;;;;6.35;2.50;;;1.20;99.90;;;;;;5009341;28;20201;-82
2022/02/08 00:49:10;;;;;;;3.00;1.92;;;1.20;99.90;;;;;;5015483;28;20212;-83
2022/02/08 00:51:42;;;;;;;2.53;1.88;;;1.20;99.90;;;;;;5027287;28;20199;-83
2022/02/08 00:54:11;;;;;;;2.95;2.10;;;1.20;99.90;;;;;;5017371;28;20228;-82
2022/02/08 00:56:38;;;;;;;1.90;1.63;;;1.50;99.90;;;;;;5008602;28;20724;-82
2022/02/08 00:59:07;;;;;;;6.32;2.95;;;1.40;99.90;;;;;;5020555;28;20290;-82
2022/02/08 01:01:37;;;;;;;3.05;1.90;;;1.40;99.90;;;;;;5009095;28;20216;-83
2022/02/08 01:04:04;;;;;;;3.50;1.95;;;1.30;99.90;;;;;;5008370;28;20751;-82
2022/02/08 01:06:31;;;;;;;5.35;2.17;;;1.40;99.90;;;;;;5027051;28;20208;-82
2022/02/08 01:09:11;;;;;;;2.10;1.30;;;1.50;99.90;;;;;;5026311;28;20577;-82
2022/02/08 01:11:40;;;;;;;2.70;2.50;;;1.40;99.90;;;;;;5015066;28;20670;-82
2022/02/08 01:14:07;;;;;;;4.15;2.30;;;1.50;99.90;;;;;;5026526;28;20201;-82
2022/02/08 01:16:35;;;;;;;10.65;2.40;;;;;;;;;;5020603;28;20203;-85
2022/02/08 01:19:04;;;;;;;2.88;1.95;;;1.50;99.70;;;;;;5011745;28;20239;-82
2022/02/08 01:21:32;;;;;;;4.25;2.50;;;1.50;99.90;;;;;;5025971;28;20208;-82
2022/02/08 01:24:02;;;;;;;4.40;2.70;;;1.50;99.90;;;;;;5027100;28;20721;-83
2022/02/08 01:26:32;;;;;;;2.15;1.60;;;1.60;99.90;;;;;;5015795;28;20209;-82
2022/02/08 01:29:05;;;;;;;4.00;1.80;;;1.60;99.70;;;;;;5019624;28;20200;-82
2022/02/08 01:31:37;;;;;;;4.35;2.25;;;1.50;99.50;;;;;;5013671;28;20203;-82
2022/02/08 01:34:26;;;;;;;5.05;2.42;;;1.40;99.90;;;;;;5017304;28;20225;-82
2022/02/08 01:37:05;;;;;;;3.17;2.35;;;1.50;99.40;;;;;;5011153;28;20209;-82
2022/02/08 01:39:42;;;;;;;1.95;1.67;;;1.50;99.50;;;;;;5012365;28;20325;-82
2022/02/08 01:42:34;;;;;;;3.15;1.65;;;1.30;99.90;;;;;;5008131;28;20563;-83
2022/02/08 01:45:34;;;;;;;5.70;1.85;;;1.40;99.30;;;;;;5009280;28;20532;-82
2022/02/08 01:48:06;;;;;;;3.90;1.88;;;1.40;99.50;;;;;;5017361;28;20263;-82
2022/02/08 01:50:34;;;;;;;7.70;2.42;;;1.40;99.50;;;;;;5007216;28;20287;-81
2022/02/08 01:53:01;;;;;;;2.80;1.80;;;1.40;99.80;;;;;;5024403;28;20197;-82
2022/02/08 01:55:30;;;;;;;3.63;2.50;;;1.50;99.80;;;;;;5016010;28;20196;-82
2022/02/08 01:57:57;;;;;;;3.17;2.08;;;1.50;99.90;;;;;;5008279;28;20616;-82
2022/02/08 02:00:24;;;;;;;2.95;1.60;;;1.50;99.60;;;;;;5022187;28;20239;-83
2022/02/08 02:02:51;;;;;;;3.35;1.92;;;1.60;99.10;;;;;;5013988;28;20202;-82
2022/02/08 02:05:18;;;;;;;5.28;1.80;;;1.50;99.90;;;;;;5018188;28;20232;-82
2022/02/08 02:07:50;;;;;;;5.63;2.38;;;1.60;98.60;;;;;;5027491;28;20204;-82
2022/02/08 02:10:19;;;;;;;3.75;1.48;;;1.70;98.00;;;;;;5025862;28;20648;-82
2022/02/08 02:12:52;;;;;;;7.35;2.47;;;1.70;98.10;;;;;;5026968;28;20200;-82
2022/02/08 02:15:21;;;;;;;6.35;2.03;;;1.60;99.90;;;;;;5018082;28;20189;-82
2022/02/08 02:17:48;;;;;;;3.25;2.03;;;1.60;99.90;;;;;;5027247;28;20201;-82
2022/02/08 02:20:16;;;;;;;3.67;1.90;;;1.70;98.00;;;;;;5021104;28;20551;-82
2022/02/08 02:22:43;;;;;;;5.15;2.17;;;1.90;97.80;;;;;;5027579;28;20291;-82
2022/02/08 02:25:22;;;;;;;6.38;2.90;;;1.80;98.30;;;;;;5025454;28;20204;-82
2022/02/08 02:27:52;;;;;;;2.55;1.50;;;1.80;98.00;;;;;;5026624;28;20266;-82
2022/02/08 02:30:20;;;;;;;1.65;1.55;;;1.90;97.80;;;;;;5018379;28;20213;-82
2022/02/08 02:32:47;;;;;;;2.03;1.55;;;1.80;98.20;;;;;;5011319;28;20803;-82
2022/02/08 02:35:14;;;;;;;5.45;2.25;;;1.80;98.20;;;;;;5008323;28;20607;-82
2022/02/08 02:37:42;;;;;;;4.97;1.63;;;1.80;98.10;;;;;;5007727;28;20619;-82
2022/02/08 02:40:11;;;;;;;2.97;1.75;;;1.80;98.10;;;;;;5011125;28;20229;-82
2022/02/08 02:42:39;;;;;;;5.03;1.90;;;2.10;98.00;;;;;;5000940;28;20489;-82
2022/02/08 02:45:09;;;;;;;2.28;1.42;;;1.90;98.20;;;;;;5008602;28;20598;-82
2022/02/08 02:47:37;;;;;;;3.25;2.22;;;1.90;98.20;;;;;;5010410;28;20230;-82
2022/02/08 02:50:08;;;;;;;2.55;1.80;;;2.00;98.30;;;;;;5022638;28;20664;-82
2022/02/08 02:52:35;;;;;;;6.32;1.77;;;2.00;98.20;;;;;;5011902;28;20344;-82
2022/02/08 02:55:03;;;;;;;6.45;2.05;;;2.00;98.10;;;;;;5021394;28;20200;-82
2022/02/08 02:57:30;;;;;;;2.40;1.40;;;2.00;97.80;;;;;;5026442;28;20530;-82
2022/02/08 03:00:06;;;;;;;3.70;1.25;;;2.00;98.00;;;;;;5015210;28;20224;-82
2022/02/08 03:02:40;;;;;;;7.13;1.65;;;2.00;98.20;;;;;;5015495;28;20201;-82
2022/02/08 03:05:17;;;;;;;4.25;1.40;;;1.80;99.90;;;;;;5019489;28;20206;-83
2022/02/08 03:18:45;;;;;;;6.20;1.77;;;1.90;97.90;;;;;;5010611;28;20271;-83
2022/02/08 03:21:12;;;;;;;3.67;1.73;;;1.90;97.70;;;;;;5028845;28;20203;-83
2022/02/08 03:23:40;;;;;;;3.85;2.15;;;1.90;97.60;;;;;;5017638;28;20205;-82
2022/02/08 03:26:08;;;;;;;2.05;1.20;;;1.90;97.60;;;;;;5025910;28;20279;-82
2022/02/08 03:28:35;;;;;;;5.20;1.45;;;1.90;97.60;;;;;;5029391;28;20304;-82
2022/02/08 03:31:04;;;;;;;1.50;1.27;;;1.90;99.20;;;;;;5012696;28;20241;-81
2022/02/08 03:33:31;;;;;;;4.18;1.60;;;2.00;97.20;;;;;;5010529;28;20206;-82
2022/02/08 03:35:59;;;;;;;2.03;1.83;;;2.00;97.20;;;;;;5019005;28;20206;-83
2022/02/08 03:38:31;;;;;;;4.20;1.58;;;2.00;97.50;;;;;;5003824;28;20225;-83
2022/02/08 03:40:58;;;;;;;4.63;2.08;;;2.10;97.40;;;;;;5011808;28;20225;-82
2022/02/08 03:43:31;;;;;;;3.25;1.42;;;2.10;99.90;;;;;;5010441;28;20209;-82
2022/02/08 03:46:00;;;;;;;4.68;1.80;;;2.20;99.50;;;;;;5025932;28;20737;-81
2022/02/08 03:48:31;;;;;;;3.58;1.92;;;2.10;97.30;;;;;;5012789;28;20212;-83
2022/02/08 03:51:07;;;;;;;2.95;1.45;;;2.10;97.20;;;;;;5012708;28;20198;-82
2022/02/08 03:53:35;;;;;;;7.40;2.85;;;2.10;97.20;;;;;;5011224;28;20208;-82
2022/02/08 03:56:02;;;;;;;4.35;2.25;;;2.10;97.40;;;;;;5017846;28;20216;-82
2022/02/08 03:58:29;;;;;;;2.95;2.33;;;2.10;97.30;;;;;;5028681;28;20221;-82
2022/02/08 04:01:20;;;;;;;6.35;1.80;;;2.10;97.30;;;;;;5027508;28;20286;-81
2022/02/08 04:04:05;;;;;;;2.58;2.38;;;2.30;99.90;;;;;;5028195;28;20196;-82
2022/02/08 04:06:32;;;;;;;5.05;2.80;;;2.20;97.20;;;;;;5023683;28;20189;-82
2022/02/08 04:09:00;;;;;;;7.38;2.35;;;2.20;97.20;;;;;;5029874;28;20205;-82
2022/02/08 04:11:27;;;;;;;3.85;2.25;;;2.20;97.90;;;;;;5013854;28;20197;-83
2022/02/08 04:14:00;;;;;;;1.98;1.80;;;2.20;97.10;;;;;;5011350;28;20259;-82
2022/02/08 04:16:27;;;;;;;2.40;2.20;;;2.10;97.30;;;;;;5011773;28;20202;-82
2022/02/08 04:19:10;;;;;;;5.78;2.28;;;2.80;99.90;;;;;;5011129;28;20205;-82
2022/02/08 04:32:46;;;;;;;2.55;1.67;;;2.20;99.90;;;;;;5014563;28;20232;-82
2022/02/08 04:35:40;;;;;;;1.75;1.63;;;2.00;99.90;;;;;;5029069;28;20200;-81
2022/02/08 04:38:19;;;;;;;4.60;2.30;;;2.30;98.20;;;;;;5029082;28;20215;-82
2022/02/08 04:40:59;;;;;;;1.75;1.50;;;2.40;96.70;;;;;;5017459;28;20288;-82
2022/02/08 04:43:38;;;;;;;2.75;1.88;;;2.30;96.50;;;;;;5008757;28;20212;-82
2022/02/08 04:46:11;;;;;;;2.00;1.80;;;2.30;96.40;;;;;;5010100;28;20260;-82
2022/02/08 04:48:48;;;;;;;3.05;1.77;;;2.20;96.60;;;;;;5010333;28;20205;-83
2022/02/08 04:51:22;;;;;;;6.90;3.50;;;2.40;96.70;;;;;;5026483;28;20200;-83
2022/02/08 04:53:57;;;;;;;2.80;2.00;;;2.10;96.90;;;;;;5020889;28;20507;-82
2022/02/08 04:56:35;;;;;;;2.55;1.50;;;2.10;97.20;;;;;;5010340;28;20259;-82
2022/02/08 04:59:16;;;;;;;4.82;1.77;;;2.20;96.70;;;;;;5017386;28;20219;-82
2022/02/08 05:02:00;;;;;;;4.63;1.67;;;2.20;96.50;;;;;;5010146;28;20224;-82
2022/02/08 05:26:54;;;;;;;3.55;1.45;;;2.40;96.50;;;;;;5020400;28;20212;-83
2022/02/08 05:40:38;;;;;;;5.32;2.50;;;2.40;97.80;;;;;;5010106;28;20854;-82
2022/02/08 05:41:06;;;;;;;2.67;1.50;;;2.50;96.60;;;;;;5011474;28;20228;-82
2022/02/08 05:43:42;;;;;;;4.60;1.98;;;2.50;96.40;;;;;;5018933;28;20208;-82
2022/02/08 05:46:47;;;;;;;4.47;1.90;;;2.70;99.00;;;;;;5025071;28;20197;-82
2022/02/08 05:49:23;;;;;;;6.35;1.55;;;2.70;96.30;;;;;;5018015;28;20674;-82
2022/02/08 05:52:19;;;;;;;3.42;1.60;;;2.50;96.40;;;;;;5017563;28;20200;-82
2022/02/08 05:54:45;;;;;;;4.95;1.70;;;2.60;96.20;;;;;;5007691;28;20205;-82
2022/02/08 05:57:13;;;;;;;9.13;2.05;;;2.50;96.30;;;;;;5023160;28;20231;-82
2022/02/08 05:59:40;;;;;;;7.43;2.35;;;2.60;96.30;;;;;;5022948;28;20256;-82
2022/02/08 06:02:07;;;;;;;1.50;1.40;;;2.70;99.90;;;;;;5009371;28;20240;-82
2022/02/08 06:04:37;;;;;;;6.90;2.42;;;2.60;96.60;;;;;;5026003;28;20607;-82
2022/02/08 06:07:04;;;;;;;1.95;1.40;;;2.90;97.00;;;;;;5024431;28;20639;-82
2022/02/08 06:09:31;;;;;;;2.08;1.77;;;2.50;96.60;;;;;;5026333;28;20596;-82
2022/02/08 06:11:58;;;;;;;2.83;2.10;;;4.20;97.70;;;;;;5027293;28;20228;-82
2022/02/08 06:14:28;;;;;;;14.05;3.53;;;2.60;96.80;;;;;;5014523;28;20298;-82
2022/02/08 06:16:55;;;;;;;3.67;2.25;;;2.60;96.80;;;;;;5012550;28;20204;-82
2022/02/08 06:19:22;;;;;;;2.95;2.03;;;2.60;96.40;;;;;;5010034;28;20288;-82
2022/02/08 06:21:49;;;;;;;2.80;1.83;;;2.60;96.20;;;;;;5012669;28;20217;-82
2022/02/08 06:24:16;;;;;;;6.28;1.95;;;2.60;96.50;;;;;;5005684;28;20229;-83
2022/02/08 06:26:43;;;;;;;2.38;1.52;;;2.60;96.60;;;;;;5018894;28;20197;-83
2022/02/08 06:29:15;;;;;;;6.18;1.98;;;;;;;;;;5018449;28;20314;-83
2022/02/08 06:31:45;;;;;;;4.50;1.80;;;2.60;95.90;;;;;;5031363;28;20748;-82
2022/02/08 06:34:16;;;;;;;2.25;1.83;;;2.70;96.40;;;;;;5018885;28;20283;-82
2022/02/08 06:36:44;;;;;;;3.03;2.00;;;2.70;96.50;;;;;;5025004;28;20200;-82
2022/02/08 06:39:10;;;;;;;1.48;1.23;;;2.70;96.30;;;;;;5022478;28;20207;-83
2022/02/08 06:41:37;;;;;;;3.15;1.83;;;2.70;96.10;;;;;;5011807;28;20307;-83
2022/02/08 06:44:05;;;;;;;1.90;1.25;;;2.90;95.90;;;;;;5028995;28;20196;-83
2022/02/08 06:46:32;;;;;;;2.65;1.85;;;2.80;99.40;;;;;;5010778;28;20202;-83
2022/02/08 06:49:00;;;;;;;4.50;1.75;;;2.80;96.00;;;;;;5018207;28;20190;-83
2022/02/08 06:51:27;;;;;;;2.15;1.95;;;2.80;96.00;;;;;;5025536;28;20663;-83
2022/02/08 06:53:54;;;;;;;3.72;1.65;;;2.80;95.70;;;;;;5021901;28;20215;-83
2022/02/08 06:56:21;;;;;;;1.73;1.58;;;2.70;99.20;;;;;;5012859;28;20679;-83
2022/02/08 06:58:51;;;;;;;4.50;1.67;;;2.70;95.90;;;;;;5028904;28;20226;-84
2022/02/08 07:01:25;;;;;;;1.65;1.30;;;2.80;95.90;;;;;;5020658;28;20233;-82
2022/02/08 07:03:52;;;;;;;3.28;1.70;;;2.80;95.80;;;;;;5012237;28;20207;-83
2022/02/08 07:06:21;;;;;;;10.13;2.72;;;2.80;95.90;;;;;;5011312;28;20205;-83
2022/02/08 07:08:48;;;;;;;2.63;1.25;;;2.80;95.80;;;;;;5011322;28;20610;-83
2022/02/08 07:11:17;;;;;;;4.50;2.20;;;2.80;95.70;;;;;;5027952;28;20200;-83
2022/02/08 07:13:49;;;;;;;8.02;2.50;;;2.80;98.90;;;;;;5018509;28;20197;-83
2022/02/08 07:16:17;;;;;;;2.63;1.80;;;2.90;95.90;;;;;;5021964;28;20197;-82
2022/02/08 07:18:44;;;;;;;7.78;1.75;;;2.90;95.80;;;;;;5014328;28;20271;-83
2022/02/08 07:21:11;;;;;;;1.45;1.35;;;3.10;96.10;;;;;;5017506;28;20248;-83
2022/02/08 07:23:40;;;;;;;3.65;1.98;;;2.90;95.90;;;;;;5015001;28;20235;-83
2022/02/08 07:26:07;;;;;;;4.03;2.22;;;2.90;96.00;;;;;;5015594;28;20201;-84
2022/02/08 07:28:39;;;;;;;3.30;1.85;;;3.10;95.80;;;;;;5018881;28;20207;-83
2022/02/08 07:31:13;;;;;;;3.00;1.83;;;3.20;96.00;;;;;;5028910;28;20216;-84
2022/02/08 07:33:45;;;;;;;3.00;1.50;;;3.10;95.90;;;;;;5028639;28;20283;-83
2022/02/08 07:36:21;;;;;;;6.35;2.10;;;3.30;95.90;;;;;;5029016;28;20255;-83
2022/02/08 07:38:51;;;;;;;4.65;2.25;;;3.30;95.80;;;;;;5029517;28;20197;-84
2022/02/08 07:41:38;;;;;;;3.38;1.50;;;3.30;95.40;;;;;;5014856;28;20229;-83
2022/02/08 07:44:06;;;;;;;6.07;2.17;;;3.40;95.40;;;;;;5025069;28;20595;-83
2022/02/08 07:46:34;;;;;;;9.27;2.08;;;3.50;95.00;;;;;;5030289;28;20196;-83
2022/02/08 07:49:03;;;;;;;3.65;1.60;;;3.60;95.60;;;;;;5014732;28;20233;-83
2022/02/08 07:51:34;;;;;;;1.48;1.35;;;3.40;95.40;;;;;;5010119;28;20582;-84
2022/02/08 07:54:02;;;;;;;5.25;1.80;;;3.50;95.40;;;;;;5022997;28;20686;-83
2022/02/08 07:56:29;;;;;;;2.80;1.25;;;3.50;98.20;;;;;;5027351;28;20201;-83
2022/02/08 07:58:56;;;;;;;4.85;2.28;;;3.60;97.80;;;;;;5029790;28;20201;-83
2022/02/08 08:01:23;;;;;;;6.25;1.90;;;3.60;95.00;;;;;;5028783;28;20283;-83
2022/02/08 08:03:50;;;;;;;3.83;2.15;;;3.60;95.00;;;;;;5013547;28;20197;-83
2022/02/08 08:06:19;;;;;;;3.92;1.95;;;3.40;98.60;;;;;;5009545;28;20212;-83
2022/02/08 08:08:47;;;;;;;10.02;2.30;;;3.50;95.30;;;;;;5014736;28;20710;-83
2022/02/08 08:11:19;;;;;;;2.85;1.20;;;3.60;95.40;;;;;;5010061;28;20201;-83
2022/02/08 08:13:53;;;;;;;4.50;2.08;;;3.60;95.40;;;;;;5009500;28;20196;-84
2022/02/08 08:16:26;;;;;;;3.85;2.00;;;5.20;96.10;;;;;;5012719;28;20529;-83
2022/02/08 08:18:59;;;;;;;3.83;1.98;;;3.80;95.10;;;;;;5029028;28;20251;-83
2022/02/08 08:21:27;;;;;;;3.35;1.95;;;3.80;94.80;;;;;;5029205;28;20220;-84
2022/02/08 08:23:54;;;;;;;4.35;1.60;;;4.10;95.20;;;;;;5020908;28;20189;-83
2022/02/08 08:26:23;;;;;;;5.95;1.60;;;3.90;95.30;;;;;;5029085;28;20406;-84
2022/02/08 08:28:50;;;;;;;6.65;2.03;;;4.00;94.90;;;;;;5028612;28;20216;-83
2022/02/08 08:31:17;;;;;;;2.53;1.73;;;4.00;95.20;;;;;;5021437;28;20248;-83
2022/02/08 08:33:44;;;;;;;3.88;1.30;;;4.10;94.40;;;;;;5029038;28;20647;-84
2022/02/08 08:36:13;;;;;;;3.53;1.70;;;4.30;98.60;;;;;;5028217;28;20193;-84
2022/02/08 08:38:40;;;;;;;3.53;1.70;;;4.20;94.80;;;;;;5029375;28;20599;-85
2022/02/08 08:41:20;;;;;;;2.30;1.17;;;4.40;94.80;;;;;;5020441;28;20255;-84
2022/02/08 08:44:18;;;;;;;2.00;1.65;;;4.30;94.50;;;;;;5026414;28;20263;-85
2022/02/08 08:49:48;;;;;;;3.83;1.70;;;4.30;93.60;;;;;;5008784;28;20208;-84
2022/02/08 08:52:16;;;;;;;5.20;1.85;;;4.50;93.90;;;;;;5027884;28;20204;-85
2022/02/08 08:54:43;;;;;;;3.90;1.75;;;4.50;93.90;;;;;;5023295;28;20204;-85
2022/02/08 08:57:11;;;;;;;3.67;1.45;;;4.40;93.50;;;;;;5026342;28;20283;-85
2022/02/08 08:59:39;;;;;;;6.55;1.75;;;4.40;93.70;;;;;;5024216;28;20197;-85
2022/02/08 09:02:06;;;;;;;6.28;1.90;;;4.10;96.80;;;;;;5010857;28;20225;-85
2022/02/08 09:04:40;;;;;;;2.53;1.60;;;4.30;93.60;;;;;;5008751;28;20229;-85
2022/02/08 09:07:08;;;;;;;4.68;2.08;;;4.40;93.90;;;;;;5021354;28;20279;-84
2022/02/08 09:09:38;;;;;;;5.07;2.50;;;4.50;93.00;;;;;;5028701;28;20611;-85
2022/02/08 09:12:16;;;;;;;3.78;1.45;;;4.60;93.70;;;;;;5010115;28;20229;-84
2022/02/08 09:15:06;;;;;;;3.75;1.45;;;4.60;93.70;;;;;;5022976;28;20233;-85
2022/02/08 09:17:56;;;;;;;4.90;1.75;;;4.80;93.70;;;;;;5026803;28;20211;-85
2022/02/08 09:26:00;;;;;;;3.03;1.77;;;5.10;93.00;;;;;;5024675;28;20224;-85
2022/02/08 09:28:40;;;;;;;2.33;1.60;;;5.20;92.90;;;;;;5017815;28;20626;-84
2022/02/08 09:31:13;;;;;;;2.08;1.30;;;5.30;92.50;;;;;;5009223;28;20212;-85
2022/02/08 09:33:40;;;;;;;3.25;1.73;;;5.40;92.30;;;;;;5008674;28;20257;-84
2022/02/08 09:36:07;;;;;;;5.82;2.20;;;5.40;95.20;;;;;;5021551;28;20926;-84
2022/02/08 09:38:35;;;;;;;5.55;1.85;;;5.50;92.20;;;;;;5026749;28;20278;-85
2022/02/08 09:41:03;;;;;;;3.83;1.40;;;5.50;92.10;;;;;;5015342;28;20729;-84
2022/02/08 09:43:34;;;;;;;3.30;1.70;;;5.40;93.10;;;;;;5024155;28;20200;-84
2022/02/08 09:46:04;;;;;;;5.85;1.55;;;5.50;92.20;;;;;;5020235;28;20213;-84
2022/02/08 09:48:40;;;;;;;4.18;1.70;;;5.70;93.60;;;;;;5013563;28;20209;-84
2022/02/08 09:51:12;;;;;;;2.17;1.40;;;5.60;92.90;;;;;;5027524;28;20200;-85
2022/02/08 09:53:41;;;;;;;4.60;2.00;;;6.90;92.90;;;;;;5022846;28;20331;-85
2022/02/08 09:56:09;;;;;;;10.57;2.03;;;5.60;95.20;;;;;;5026858;28;20761;-86
2022/02/08 09:58:36;;;;;;;3.97;1.60;;;5.80;91.90;;;;;;5032215;28;20210;-85
2022/02/08 10:01:06;;;;;;;3.88;1.60;;;5.90;91.50;;;;;;5031935;28;20224;-85
2022/02/08 10:03:34;;;;;;;5.47;1.45;;;6.00;91.70;;;;;;5015811;28;20205;-85
2022/02/08 10:06:01;;;;;;;5.35;1.90;;;6.00;91.50;;;;;;5021893;28;20228;-84
2022/02/08 10:08:29;;;;;;;5.20;1.55;;;6.10;91.80;;;;;;5012128;28;20283;-83
2022/02/08 10:10:56;;;;;;;3.88;1.52;;;6.10;91.50;;;;;;5012300;28;20205;-84
2022/02/08 10:13:37;;;;;;;4.07;1.30;;;6.10;91.30;;;;;;5020741;28;20188;-85
2022/02/08 10:19:04;;;;;;;4.93;1.48;;;6.30;91.50;;;;;;5005731;28;20208;-85
2022/02/08 10:24:25;;;;;;;4.15;1.48;;;6.30;91.00;;;;;;5021732;28;20635;-85
2022/02/08 10:27:02;;;;;;;3.40;1.50;;;6.30;90.70;;;;;;5029245;28;20204;-85
2022/02/08 10:29:39;;;;;;;3.25;1.30;;;6.30;90.70;;;;;;5011193;28;20227;-84
2022/02/08 10:37:34;;;;;;;4.03;1.20;;;6.40;91.00;;;;;;5017977;28;20201;-84
2022/02/08 10:38:00;;;;;;;2.67;1.17;;;6.60;93.20;;;;;;5022116;28;20767;-84
2022/02/08 10:40:27;;;;;;;1.35;1.25;;;6.70;90.10;;;;;;5010929;28;20203;-83
2022/02/08 10:42:56;;;;;;;7.13;1.63;;;7.10;93.20;;;;;;5023767;28;20707;-84
2022/02/08 10:45:25;;;;;;;4.75;1.23;;;7.00;90.10;;;;;;5020881;28;20238;-84
2022/02/08 10:47:57;;;;;;;2.40;0.90;;;6.90;90.30;;;;;;5031442;28;20262;-83
2022/02/08 10:50:26;;;;;;;3.70;1.30;;;7.10;93.30;;;;;;5029097;28;20208;-84
2022/02/08 10:52:56;;;;;;;1.98;1.55;;;6.90;89.50;;;;;;5022202;28;20560;-84
2022/02/08 10:55:36;;;;;;;2.33;1.52;;;7.10;93.30;;;;;;5011155;28;20201;-85
2022/02/08 10:58:16;;;;;;;1.75;1.63;;;7.10;90.10;;;;;;5022086;28;20206;-84
2022/02/08 11:00:48;;;;;;;4.07;1.50;;;6.80;89.10;;;;;;5026902;28;20205;-84
2022/02/08 11:03:20;;;;;;;3.00;1.50;;;7.10;89.20;;;;;;5004375;28;20604;-85
2022/02/08 11:06:05;;;;;;;3.33;1.38;;;7.10;90.00;;;;;;5010556;28;20197;-85
2022/02/08 11:08:58;;;;;;;2.78;1.67;;;7.20;90.40;;;;;;5016466;28;20227;-85
2022/02/08 11:11:39;;;;;;;3.10;2.13;;;7.10;90.80;;;;;;5022328;28;20797;-84
2022/02/08 11:14:22;;;;;;;3.10;1.70;;;7.40;90.20;;;;;;5011348;28;20205;-84
2022/02/08 11:19:48;;;;;;;3.15;1.95;;;7.40;90.30;;;;;;5029716;28;20289;-83
2022/02/08 11:22:27;;;;;;;1.77;1.20;;;7.50;90.20;;;;;;5030437;28;20243;-83
2022/02/08 11:25:01;;;;;;;2.90;1.30;;;7.80;90.40;;;;;;5018357;28;20188;-84
2022/02/08 11:27:37;;;;;;;8.47;1.50;;;8.00;90.00;;;;;;5014355;28;20193;-84
2022/02/08 11:30:11;;;;;;;3.27;1.47;;;8.10;90.00;;;;;;5010662;28;20644;-84
2022/02/08 11:32:58;;;;;;;2.53;1.67;;;8.80;93.50;;;;;;5022682;28;21185;-84
2022/02/08 11:44:25;;;;;;;2.10;1.20;;;8.90;90.10;;;;;;5024035;28;20665;-85
2022/02/08 11:47:17;;;;;;;1.73;1.30;;;8.80;90.50;;;;;;5030221;28;20633;-84
2022/02/08 11:50:02;;;;;;;1.77;0.90;;;8.80;91.10;;;;;;5012706;28;20726;-85
2022/02/08 11:52:49;;;;;;;3.57;1.13;;;9.10;93.50;;;;;;5010796;28;20639;-84
2022/02/08 11:55:48;;;;;;;2.10;1.40;;;8.90;92.10;;;;;;5010005;28;20678;-84
2022/02/08 11:58:28;;;;;;;4.23;2.30;;;9.00;92.10;;;;;;5018194;28;20635;-85
2022/02/08 12:01:14;;;;;;;3.37;1.80;;;8.90;92.90;;;;;;5029762;28;20623;-84
2022/02/08 12:09:12;;;;;;;34.13;20.00;;;9.20;93.10;;;;;;5011856;28;20689;-84
2022/02/08 12:12:15;;;;;;;17.33;10.20;;;9.30;92.60;;;;;;5009870;28;20611;-84
2022/02/08 12:31:35;;;;;;;3.30;1.43;;;9.70;96.60;;;;;;5022354;28;20674;-85
2022/02/08 12:53:50;;;;;;;5.87;2.60;;;9.60;96.80;;;;;;5004428;28;20771;-83
2022/02/08 12:56:31;;;;;;;4.23;1.00;;;9.70;93.80;;;;;;5022894;28;20634;-82
2022/02/08 12:59:14;;;;;;;8.10;6.50;;;9.70;94.10;;;;;;5021286;28;20635;-84
2022/02/08 13:02:07;;;;;;;6.30;3.00;;;9.60;93.70;;;;;;5018197;28;21245;-83
2022/02/08 13:04:48;;;;;;;4.93;2.20;;;9.40;93.90;;;;;;5027951;28;20623;-83
2022/02/08 14:01:30;;;;;;;2.50;1.17;;;9.50;93.70;;;;;;5024053;28;20619;-83
2022/02/08 14:05:59;;;;;;;3.90;2.33;;;8.90;94.20;;;;;;5026611;28;20967;-82
2022/02/08 14:08:39;;;;;;;4.10;1.10;;;8.90;94.50;;;;;;5014269;28;20642;-83
2022/02/08 14:11:27;;;;;;;0.80;0.80;;;8.80;94.80;;;;;;5015091;28;20632;-83
2022/02/08 14:14:08;;;;;;;2.60;1.43;;;8.90;94.70;;;;;;5017101;28;20829;-82
2022/02/08 14:16:47;;;;;;;1.70;0.87;;;9.10;97.50;;;;;;5019477;28;20716;-82
2022/02/08 14:19:30;;;;;;;2.00;1.20;;;8.90;94.70;;;;;;5008619;28;21001;-83
2022/02/08 14:22:13;;;;;;;2.83;1.43;;;8.80;94.70;;;;;;5009309;28;20651;-83
2022/02/08 14:25:15;;;;;;;1.47;1.30;;;8.80;94.90;;;;;;5026746;28;20637;-83
2022/02/08 14:30:31;;;;;;;2.23;1.40;;;8.70;95.20;;;;;;5013737;28;20878;-83
2022/02/08 14:33:09;;;;;;;2.87;2.10;;;8.60;98.20;;;;;;5022735;28;21261;-83
2022/02/08 14:36:04;;;;;;;3.20;1.33;;;8.60;95.20;;;;;;5021845;28;20664;-82
2022/02/08 14:58:54;;;;;;;6.80;3.70;;;9.00;95.10;;;;;;5011434;28;20619;-83
2022/02/08 15:06:27;;;;;;;2.50;1.20;;;9.10;95.50;;;;;;5019150;28;21208;-83
2022/02/08 15:08:54;;;;;;;6.70;5.27;;;9.10;95.30;;;;;;5023605;28;21101;-83
2022/02/08 15:11:29;;;;;;;8.10;7.30;;;9.10;95.10;;;;;;5012299;28;20638;-83
2022/02/08 15:13:59;;;;;;;8.97;6.87;;;8.80;95.20;;;;;;5017109;28;20971;-83
2022/02/08 15:16:29;;;;;;;2.50;1.63;;;8.90;95.50;;;;;;5025522;28;20632;-83
2022/02/08 15:18:56;;;;;;;1.53;1.40;;;8.80;96.00;;;;;;5010624;28;20623;-83
2022/02/08 15:21:27;;;;;;;5.60;1.83;;;8.80;95.90;;;;;;5012524;28;20630;-83
2022/02/08 15:23:54;;;;;;;1.90;1.30;;;8.50;98.80;;;;;;5010533;28;20663;-83
2022/02/08 15:26:22;;;;;;;1.20;1.10;;;8.70;96.30;;;;;;5027441;28;21246;-83
2022/02/08 15:28:49;;;;;;;2.30;1.33;;;;;;;;;;5017578;28;20629;-83
2022/02/08 15:31:18;;;;;;;3.33;0.90;;;8.50;96.20;;;;;;5020214;28;20640;-83
2022/02/08 15:33:45;;;;;;;3.27;2.97;;;8.30;99.20;;;;;;5007666;28;20635;-83
2022/02/08 15:36:15;;;;;;;3.43;3.13;;;8.40;96.70;;;;;;5015122;28;20678;-83
2022/02/08 15:38:47;;;;;;;2.63;2.00;;;8.40;96.70;;;;;;5028846;28;20643;-83
2022/02/08 15:41:14;;;;;;;3.67;3.13;;;8.40;96.70;;;;;;5014479;28;20628;-83
2022/02/08 15:43:41;;;;;;;6.77;5.90;;;8.40;97.20;;;;;;5008634;28;20671;-83
2022/02/08 15:46:16;;;;;;;5.57;5.07;;;8.30;96.80;;;;;;5008361;28;20705;-83
2022/02/08 15:48:47;;;;;;;2.77;2.57;;;8.30;96.70;;;;;;5008819;28;21346;-83
2022/02/08 15:51:19;;;;;;;2.53;1.93;;;8.30;96.90;;;;;;5022479;28;21211;-82
2022/02/08 16:07:40;;;;;;;3.03;1.17;;;;;;;;;;5029565;28;21192;-83
2022/02/08 16:10:13;;;;;;;1.97;1.37;;;8.00;98.20;;;;;;5029077;28;20627;-83
2022/02/08 16:13:01;;;;;;;1.70;1.27;;;7.70;99.90;;;;;;5010555;28;20638;-83
2022/02/08 16:15:50;;;;;;;1.43;1.17;;;8.00;98.50;;;;;;5007149;28;20673;-83
2022/02/08 16:18:26;;;;;;;2.90;1.97;;;7.90;98.60;;;;;;5028160;28;20630;-82
2022/02/08 16:21:24;;;;;;;1.60;1.30;;;7.90;98.50;;;;;;5028644;28;20742;-83
2022/02/08 16:24:11;;;;;;;4.63;1.53;;;7.90;98.80;;;;;;5009303;28;20656;-83
2022/02/08 16:27:00;;;;;;;3.57;1.63;;;7.70;99.90;;;;;;5024866;28;20661;-83
2022/02/08 16:32:38;;;;;;;5.97;1.73;;;7.80;99.30;;;;;;5020099;28;20220;-82
2022/02/08 16:46:41;;;;;;;4.68;2.80;;;7.70;99.80;;;;;;5019165;28;20616;-83
2022/02/08 16:49:24;;;;;;;3.67;3.47;;;7.70;99.80;;;;;;5003231;28;20225;-83
2022/02/08 16:54:47;;;;;;;1.97;1.87;;;7.70;99.90;;;;;;5017736;28;20624;-83
2022/02/08 16:57:19;;;;;;;2.35;1.77;;;7.60;99.90;;;;;;5028260;28;20630;-83
2022/02/08 16:59:47;;;;;;;2.78;1.52;;;7.60;99.90;;;;;;5017280;28;20203;-82
2022/02/08 17:02:19;;;;;;;1.30;1.00;;;7.50;99.90;;;;;;5008912;28;20201;-83
2022/02/08 17:04:46;;;;;;;2.53;1.70;;;7.50;99.90;;;;;;5026511;28;20620;-83
2022/02/08 17:07:13;;;;;;;2.23;1.30;;;7.60;99.90;;;;;;5028121;28;21050;-83
2022/02/08 17:09:46;;;;;;;3.72;1.90;;;7.60;99.90;;;;;;5010206;28;21782;-83
2022/02/08 17:12:19;;;;;;;2.30;2.10;;;7.60;99.90;;;;;;5012479;28;20232;-82
2022/02/08 17:14:55;;;;;;;2.50;2.23;;;7.70;99.80;;;;;;5027701;28;20650;-83
2022/02/08 17:17:48;;;;;;;2.55;1.90;;;7.70;99.80;;;;;;5015036;28;20632;-83
2022/02/08 17:47:53;;;;;;;8.17;5.80;;;;;;;;;;5013514;28;20651;-83
2022/02/08 17:50:20;;;;;;;5.03;3.90;;;7.70;98.40;;;;;;5023215;28;20698;-83
2022/02/08 17:52:49;;;;;;;5.57;4.80;;;7.80;98.50;;;;;;5014673;28;20728;-83
2022/02/08 17:55:17;;;;;;;5.20;3.40;;;7.70;98.50;;;;;;5017712;28;20622;-83